createdAt,value
2018-02-09T00:00:28.943Z,29.50
2018-02-09T00:01:32.267Z,29.35
2018-02-09T00:02:35.530Z,28.62
2018-02-09T00:03:38.764Z,29.33
2018-02-09T00:04:41.349Z,29.33
2018-02-09T00:05:43.858Z,29.05
2018-02-09T00:06:46.989Z,28.08
2018-02-09T00:07:49.502Z,30.20
2018-02-09T00:08:52.068Z,29.63
2018-02-09T00:09:54.548Z,29.35
2018-02-09T00:10:57.943Z,30.35
2018-02-09T00:12:00.561Z,29.67
2018-02-09T00:13:03.069Z,29.40
2018-02-09T00:14:05.580Z,28.62
2018-02-09T00:15:08.823Z,29.77
2018-02-09T00:16:12.080Z,29.90
2018-02-09T00:17:14.579Z,29.52
2018-02-09T00:18:17.812Z,30.98
2018-02-09T00:19:21.053Z,30.80
2018-02-09T00:20:23.528Z,27.58
2018-02-09T00:21:26.016Z,30.12
2018-02-09T00:22:41.051Z,29.85
2018-02-09T00:23:43.593Z,29.65
2018-02-09T00:24:46.072Z,30.75
2018-02-09T00:25:49.514Z,29.87
2018-02-09T00:26:53.520Z,32.28
2018-02-09T00:27:56.229Z,29.40
2018-02-09T00:28:58.714Z,29.80
2018-02-09T00:30:01.212Z,30.00
2018-02-09T00:31:03.686Z,30.23
2018-02-09T00:32:06.914Z,29.08
2018-02-09T00:33:10.918Z,31.45
2018-02-09T00:34:13.380Z,28.83
2018-02-09T00:35:16.015Z,29.92
2018-02-09T00:36:18.499Z,28.55
2018-02-09T00:37:21.025Z,27.90
2018-02-09T00:38:23.490Z,27.35
2018-02-09T00:39:25.998Z,29.35
2018-02-09T00:40:28.582Z,28.12
2018-02-09T00:41:32.038Z,30.20
2018-02-09T00:42:34.515Z,30.00
2018-02-09T00:43:36.999Z,30.30
2018-02-09T00:44:39.519Z,28.58
2018-02-09T00:45:42.078Z,29.75
2018-02-09T00:46:44.597Z,29.65
2018-02-09T00:47:47.098Z,28.05
2018-02-09T00:48:49.564Z,31.35
2018-02-09T00:49:52.062Z,27.50
2018-02-09T00:50:54.615Z,29.33
2018-02-09T00:51:57.174Z,28.87
2018-02-09T00:53:00.414Z,27.20
2018-02-09T00:54:03.662Z,29.52
2018-02-09T00:55:06.921Z,29.80
2018-02-09T00:56:09.451Z,27.37
2018-02-09T00:57:11.943Z,26.25
2018-02-09T00:58:15.758Z,28.87
2018-02-09T00:59:18.237Z,28.30
2018-02-09T01:00:21.503Z,28.40
2018-02-09T01:01:24.038Z,28.58
2018-02-09T01:02:26.536Z,30.62
2018-02-09T01:03:29.071Z,30.00
2018-02-09T01:04:31.858Z,28.48
2018-02-09T01:05:34.587Z,29.17
2018-02-09T01:06:37.179Z,28.25
2018-02-09T01:07:39.770Z,29.15
2018-02-09T01:08:43.043Z,28.55
2018-02-09T01:09:45.515Z,29.12
2018-02-09T01:10:48.014Z,29.60
2018-02-09T01:11:50.511Z,30.10
2018-02-09T01:12:53.074Z,30.15
2018-02-09T01:13:55.544Z,30.75
2018-02-09T01:14:58.786Z,30.12
2018-02-09T01:16:01.297Z,29.08
2018-02-09T01:17:03.873Z,30.17
2018-02-09T01:18:06.357Z,31.12
2018-02-09T01:19:09.666Z,31.15
2018-02-09T01:20:12.145Z,31.40
2018-02-09T01:21:15.423Z,28.80
2018-02-09T01:22:17.909Z,31.70
2018-02-09T01:23:21.156Z,30.48
2018-02-09T01:24:23.790Z,32.97
2018-02-09T01:25:26.259Z,30.95
2018-02-09T01:26:28.847Z,32.70
2018-02-09T01:27:31.324Z,32.58
2018-02-09T01:28:33.814Z,30.52
2018-02-09T01:29:36.339Z,30.50
2018-02-09T01:30:38.823Z,31.45
2018-02-09T01:31:42.089Z,31.23
2018-02-09T01:32:44.572Z,30.60
2018-02-09T01:33:47.811Z,31.25
2018-02-09T01:34:51.067Z,30.40
2018-02-09T01:35:54.324Z,30.85
2018-02-09T01:36:57.672Z,31.70
2018-02-09T01:38:00.934Z,31.75
2018-02-09T01:39:03.437Z,30.80
2018-02-09T01:40:06.690Z,31.17
2018-02-09T01:41:09.937Z,30.73
2018-02-09T01:42:12.426Z,30.88
2018-02-09T01:43:15.096Z,32.65
2018-02-09T01:44:17.667Z,30.40
2018-02-09T01:45:20.881Z,32.22
2018-02-09T01:46:23.383Z,30.00
2018-02-09T01:47:25.911Z,29.70
2018-02-09T01:48:28.424Z,30.88
2018-02-09T01:49:31.684Z,31.33
2018-02-09T01:50:34.169Z,31.55
2018-02-09T01:51:37.437Z,30.83
2018-02-09T01:52:39.895Z,30.23
2018-02-09T01:53:42.373Z,30.25
2018-02-09T01:54:45.632Z,31.48
2018-02-09T01:55:48.139Z,31.17
2018-02-09T01:56:51.449Z,31.45
2018-02-09T01:57:53.951Z,33.30
2018-02-09T01:58:56.435Z,31.08
2018-02-09T01:59:59.684Z,30.98
2018-02-09T02:01:02.920Z,31.70
2018-02-09T02:02:06.169Z,30.12
2018-02-09T02:03:09.394Z,29.58
2018-02-09T02:04:11.946Z,32.75
2018-02-09T02:05:14.432Z,31.62
2018-02-09T02:06:16.921Z,30.52
2018-02-09T02:07:19.416Z,31.85
2018-02-09T02:08:22.664Z,33.75
2018-02-09T02:09:25.170Z,32.88
2018-02-09T02:10:28.419Z,32.35
2018-02-09T02:11:31.690Z,31.45
2018-02-09T02:12:34.176Z,29.75
2018-02-09T02:13:37.422Z,29.80
2018-02-09T02:14:40.686Z,30.52
2018-02-09T02:15:43.203Z,31.48
2018-02-09T02:16:46.456Z,32.25
2018-02-09T02:17:48.942Z,30.30
2018-02-09T02:18:52.938Z,32.08
2018-02-09T02:19:55.417Z,31.05
2018-02-09T02:20:57.911Z,30.50
2018-02-09T02:22:00.415Z,31.83
2018-02-09T02:23:02.898Z,31.77
2018-02-09T02:24:05.458Z,31.83
2018-02-09T02:25:08.690Z,31.15
2018-02-09T02:26:11.962Z,30.60
2018-02-09T02:27:14.436Z,31.67
2018-02-09T02:28:17.002Z,30.77
2018-02-09T02:29:19.797Z,32.00
2018-02-09T02:30:22.267Z,30.60
2018-02-09T02:31:24.729Z,30.20
2018-02-09T02:32:27.220Z,32.35
2018-02-09T02:33:29.688Z,30.20
2018-02-09T02:34:32.161Z,30.88
2018-02-09T02:35:34.707Z,29.90
2018-02-09T02:36:37.166Z,31.42
2018-02-09T02:37:39.651Z,31.45
2018-02-09T02:38:42.463Z,32.45
2018-02-09T02:39:44.943Z,28.95
2018-02-09T02:40:47.437Z,30.25
2018-02-09T02:41:49.918Z,29.83
2018-02-09T02:42:53.180Z,31.75
2018-02-09T02:43:55.661Z,31.62
2018-02-09T02:44:58.134Z,30.60
2018-02-09T02:46:00.619Z,32.58
2018-02-09T02:47:03.106Z,31.62
2018-02-09T02:48:05.585Z,32.60
2018-02-09T02:49:08.826Z,31.52
2018-02-09T02:50:12.070Z,31.37
2018-02-09T02:51:15.353Z,31.17
2018-02-09T02:52:17.853Z,30.05
2018-02-09T02:53:21.101Z,35.20
2018-02-09T02:54:23.571Z,29.73
2018-02-09T02:55:26.040Z,30.92
2018-02-09T02:56:29.289Z,32.33
2018-02-09T02:57:32.558Z,31.65
2018-02-09T02:58:35.021Z,31.90
2018-02-09T02:59:37.881Z,31.58
2018-02-09T03:00:41.154Z,32.97
2018-02-09T03:01:43.612Z,32.17
2018-02-09T03:02:46.110Z,33.45
2018-02-09T03:03:48.579Z,31.92
2018-02-09T03:04:52.588Z,33.10
2018-02-09T03:05:55.089Z,32.10
2018-02-09T03:06:58.345Z,33.35
2018-02-09T03:08:00.916Z,31.12
2018-02-09T03:09:03.401Z,31.98
2018-02-09T03:10:05.921Z,32.05
2018-02-09T03:11:08.457Z,31.77
2018-02-09T03:12:10.921Z,31.90
2018-02-09T03:13:13.409Z,32.40
2018-02-09T03:14:15.882Z,31.90
2018-02-09T03:15:19.133Z,32.55
2018-02-09T03:16:22.389Z,31.40
2018-02-09T03:17:25.653Z,33.40
2018-02-09T03:18:28.138Z,32.22
2018-02-09T03:19:31.366Z,33.20
2018-02-09T03:20:33.845Z,34.38
2018-02-09T03:21:37.542Z,33.22
2018-02-09T03:22:40.122Z,32.40
2018-02-09T03:23:42.911Z,34.80
2018-02-09T03:24:45.421Z,34.13
2018-02-09T03:25:47.905Z,33.35
2018-02-09T03:26:50.373Z,33.70
2018-02-09T03:27:52.849Z,32.28
2018-02-09T03:28:56.077Z,34.35
2018-02-09T03:29:59.403Z,33.53
2018-02-09T03:31:02.728Z,32.13
2018-02-09T03:32:05.183Z,32.75
2018-02-09T03:33:08.444Z,33.15
2018-02-09T03:34:11.698Z,30.30
2018-02-09T03:35:14.166Z,33.15
2018-02-09T03:36:16.751Z,33.70
2018-02-09T03:37:19.238Z,33.22
2018-02-09T03:38:21.723Z,33.55
2018-02-09T03:39:24.236Z,33.67
2018-02-09T03:40:26.757Z,33.47
2018-02-09T03:41:29.265Z,32.70
2018-02-09T03:42:31.742Z,32.50
2018-02-09T03:43:34.690Z,32.65
2018-02-09T03:44:37.185Z,33.90
2018-02-09T03:45:39.641Z,34.78
2018-02-09T03:46:42.132Z,34.58
2018-02-09T03:47:44.654Z,34.45
2018-02-09T03:48:47.159Z,33.70
2018-02-09T03:49:49.680Z,33.90
2018-02-09T03:50:52.904Z,34.00
2018-02-09T03:51:56.167Z,34.17
2018-02-09T03:52:58.643Z,33.47
2018-02-09T03:54:01.217Z,34.03
2018-02-09T03:55:03.718Z,33.42
2018-02-09T03:56:06.970Z,34.60
2018-02-09T03:57:10.190Z,32.22
2018-02-09T03:58:12.684Z,32.42
2018-02-09T03:59:15.181Z,33.28
2018-02-09T04:00:17.716Z,34.00
2018-02-09T04:01:20.950Z,34.65
2018-02-09T04:02:23.452Z,34.15
2018-02-09T04:03:26.727Z,31.73
2018-02-09T04:04:29.270Z,33.70
2018-02-09T04:05:31.769Z,33.15
2018-02-09T04:06:34.310Z,34.10
2018-02-09T04:07:36.787Z,34.80
2018-02-09T04:08:40.024Z,33.03
2018-02-09T04:09:42.562Z,33.45
2018-02-09T04:10:46.660Z,33.90
2018-02-09T04:11:49.129Z,34.65
2018-02-09T04:12:51.826Z,34.38
2018-02-09T04:13:54.289Z,32.28
2018-02-09T04:14:56.750Z,32.38
2018-02-09T04:15:59.236Z,33.50
2018-02-09T04:17:01.729Z,35.47
2018-02-09T04:18:04.226Z,33.03
2018-02-09T04:19:07.464Z,32.97
2018-02-09T04:20:09.977Z,34.50
2018-02-09T04:21:13.238Z,34.90
2018-02-09T04:22:15.774Z,34.42
2018-02-09T04:23:18.247Z,33.90
2018-02-09T04:24:20.738Z,33.47
2018-02-09T04:25:23.479Z,32.58
2018-02-09T04:26:25.981Z,34.65
2018-02-09T04:27:28.425Z,35.08
2018-02-09T04:28:30.930Z,34.55
2018-02-09T04:29:33.402Z,33.63
2018-02-09T04:30:35.897Z,33.92
2018-02-09T04:31:38.368Z,34.00
2018-02-09T04:32:41.089Z,33.42
2018-02-09T04:33:43.583Z,34.67
2018-02-09T04:34:46.123Z,31.65
2018-02-09T04:35:48.774Z,33.97
2018-02-09T04:36:51.361Z,34.65
2018-02-09T04:37:53.943Z,34.95
2018-02-09T04:38:56.566Z,34.88
2018-02-09T04:40:00.199Z,32.85
2018-02-09T04:41:02.750Z,35.08
2018-02-09T04:42:05.319Z,32.05
2018-02-09T04:43:07.848Z,34.50
2018-02-09T04:44:10.615Z,32.67
2018-02-09T04:45:13.092Z,32.97
2018-02-09T04:46:15.623Z,32.53
2018-02-09T04:47:18.099Z,34.22
2018-02-09T04:48:20.581Z,34.45
2018-02-09T04:49:23.185Z,33.75
2018-02-09T04:50:25.757Z,34.28
2018-02-09T04:51:29.728Z,32.30
2018-02-09T04:52:33.017Z,33.55
2018-02-09T04:53:35.631Z,32.85
2018-02-09T04:54:38.119Z,33.40
2018-02-09T04:55:40.591Z,33.45
2018-02-09T04:56:43.067Z,35.13
2018-02-09T04:57:45.540Z,34.90
2018-02-09T04:58:48.802Z,35.85
2018-02-09T04:59:51.317Z,33.80
2018-02-09T05:00:53.826Z,34.83
2018-02-09T05:01:57.050Z,35.67
2018-02-09T05:03:00.318Z,35.65
2018-02-09T05:04:02.820Z,34.50
2018-02-09T05:05:06.055Z,37.85
2018-02-09T05:06:09.300Z,33.83
2018-02-09T05:07:12.530Z,34.85
2018-02-09T05:08:16.564Z,35.95
2018-02-09T05:09:19.056Z,33.85
2018-02-09T05:10:21.554Z,34.53
2018-02-09T05:11:24.825Z,34.85
2018-02-09T05:12:27.306Z,35.38
2018-02-09T05:13:31.316Z,35.47
2018-02-09T05:14:33.848Z,34.97
2018-02-09T05:15:36.366Z,35.88
2018-02-09T05:16:38.907Z,35.17
2018-02-09T05:17:41.369Z,37.63
2018-02-09T05:18:45.863Z,37.03
2018-02-09T05:19:49.122Z,36.42
2018-02-09T05:20:51.631Z,37.70
2018-02-09T05:21:54.866Z,35.20
2018-02-09T05:22:58.141Z,36.03
2018-02-09T05:24:00.666Z,36.58
2018-02-09T05:25:03.130Z,35.15
2018-02-09T05:26:05.720Z,36.80
2018-02-09T05:27:08.198Z,35.20
2018-02-09T05:28:10.662Z,36.95
2018-02-09T05:29:13.166Z,36.70
2018-02-09T05:30:16.441Z,35.20
2018-02-09T05:31:18.931Z,34.97
2018-02-09T05:32:22.183Z,34.97
2018-02-09T05:33:25.493Z,37.70
2018-02-09T05:34:27.994Z,36.45
2018-02-09T05:35:30.483Z,35.03
2018-02-09T05:36:32.992Z,35.13
2018-02-09T05:37:36.362Z,35.92
2018-02-09T05:38:38.837Z,35.53
2018-02-09T05:39:41.328Z,35.40
2018-02-09T05:40:43.795Z,36.33
2018-02-09T05:41:47.030Z,35.17
2018-02-09T05:42:49.565Z,36.35
2018-02-09T05:43:53.557Z,35.80
2018-02-09T05:44:56.797Z,36.42
2018-02-09T05:46:00.038Z,35.58
2018-02-09T05:47:03.499Z,36.13
2018-02-09T05:48:06.006Z,36.53
2018-02-09T05:49:09.248Z,36.85
2018-02-09T05:50:12.495Z,35.65
2018-02-09T05:51:14.982Z,36.35
2018-02-09T05:52:18.739Z,35.95
2018-02-09T05:53:21.268Z,36.85
2018-02-09T05:54:26.077Z,35.25
2018-02-09T05:55:29.357Z,36.38
2018-02-09T05:56:31.867Z,35.70
2018-02-09T05:57:34.394Z,35.50
2018-02-09T05:58:36.865Z,37.20
2018-02-09T05:59:39.334Z,35.90
2018-02-09T06:00:41.829Z,37.33
2018-02-09T06:01:44.283Z,37.45
2018-02-09T06:02:47.524Z,37.47
2018-02-09T06:03:49.999Z,37.92
2018-02-09T06:04:52.471Z,36.42
2018-02-09T06:05:54.976Z,38.78
2018-02-09T06:06:58.241Z,39.20
2018-02-09T06:08:00.759Z,38.20
2018-02-09T06:09:03.983Z,38.15
2018-02-09T06:10:07.253Z,37.78
2018-02-09T06:11:09.998Z,39.42
2018-02-09T06:12:12.507Z,38.40
2018-02-09T06:13:14.973Z,38.97
2018-02-09T06:14:17.437Z,39.72
2018-02-09T06:15:20.723Z,38.13
2018-02-09T06:16:23.208Z,38.20
2018-02-09T06:17:26.495Z,39.78
2018-02-09T06:18:28.980Z,38.50
2018-02-09T06:19:32.222Z,41.17
2018-02-09T06:20:35.454Z,38.10
2018-02-09T06:21:38.717Z,42.03
2018-02-09T06:22:41.226Z,38.95
2018-02-09T06:23:44.470Z,41.97
2018-02-09T06:24:46.981Z,41.22
2018-02-09T06:25:50.281Z,40.80
2018-02-09T06:26:52.762Z,39.40
2018-02-09T06:27:56.016Z,40.75
2018-02-09T06:28:59.268Z,40.92
2018-02-09T06:30:01.769Z,41.17
2018-02-09T06:31:05.022Z,40.40
2018-02-09T06:32:08.298Z,40.30
2018-02-09T06:33:10.789Z,41.83
2018-02-09T06:34:14.032Z,41.03
2018-02-09T06:35:17.290Z,40.78
2018-02-09T06:36:19.797Z,43.45
2018-02-09T06:37:23.075Z,41.72
2018-02-09T06:38:25.600Z,39.80
2018-02-09T06:39:28.076Z,41.67
2018-02-09T06:40:31.311Z,43.63
2018-02-09T06:41:33.794Z,41.70
2018-02-09T06:42:36.351Z,41.95
2018-02-09T06:43:38.845Z,41.90
2018-02-09T06:44:41.313Z,40.72
2018-02-09T06:45:44.616Z,41.97
2018-02-09T06:46:47.133Z,39.97
2018-02-09T06:47:49.604Z,39.67
2018-02-09T06:48:52.069Z,40.65
2018-02-09T06:49:54.552Z,40.08
2018-02-09T06:50:58.548Z,39.78
2018-02-09T06:52:01.770Z,38.83
2018-02-09T06:53:05.109Z,39.25
2018-02-09T06:54:08.347Z,39.95
2018-02-09T06:55:12.410Z,38.22
2018-02-09T06:56:14.910Z,38.17
2018-02-09T06:57:17.374Z,37.40
2018-02-09T06:58:20.630Z,39.67
2018-02-09T06:59:23.849Z,39.25
2018-02-09T07:00:27.117Z,37.15
2018-02-09T07:01:29.605Z,36.20
2018-02-09T07:02:32.856Z,39.10
2018-02-09T07:03:36.108Z,40.30
2018-02-09T07:04:38.587Z,39.72
2018-02-09T07:05:41.129Z,40.72
2018-02-09T07:06:43.643Z,39.13
2018-02-09T07:07:46.147Z,40.15
2018-02-09T07:08:48.617Z,36.85
2018-02-09T07:09:51.965Z,36.80
2018-02-09T07:10:54.438Z,40.63
2018-02-09T07:11:56.910Z,38.13
2018-02-09T07:13:00.605Z,38.97
2018-02-09T07:14:03.118Z,38.17
2018-02-09T07:15:06.375Z,40.10
2018-02-09T07:16:08.866Z,40.60
2018-02-09T07:17:11.352Z,38.42
2018-02-09T07:18:13.841Z,38.40
2018-02-09T07:19:16.874Z,37.33
2018-02-09T07:20:20.130Z,40.50
2018-02-09T07:21:22.695Z,40.33
2018-02-09T07:22:25.177Z,38.40
2018-02-09T07:23:27.670Z,41.33
2018-02-09T07:24:30.939Z,41.25
2018-02-09T07:25:34.194Z,39.95
2018-02-09T07:26:36.718Z,37.38
2018-02-09T07:27:39.340Z,39.63
2018-02-09T07:28:42.570Z,37.30
2018-02-09T07:29:45.796Z,37.78
2018-02-09T07:30:49.107Z,36.85
2018-02-09T07:31:51.583Z,36.03
2018-02-09T07:32:54.934Z,38.08
2018-02-09T07:33:57.449Z,36.60
2018-02-09T07:35:00.733Z,38.20
2018-02-09T07:36:03.316Z,38.13
2018-02-09T07:37:06.684Z,36.88
2018-02-09T07:38:09.152Z,37.30
2018-02-09T07:39:11.621Z,37.85
2018-02-09T07:40:14.858Z,38.05
2018-02-09T07:41:18.200Z,38.15
2018-02-09T07:42:21.443Z,36.72
2018-02-09T07:43:24.718Z,35.33
2018-02-09T07:44:27.251Z,35.78
2018-02-09T07:45:29.764Z,35.10
2018-02-09T07:46:32.241Z,36.22
2018-02-09T07:47:35.543Z,35.08
2018-02-09T07:48:38.035Z,34.20
2018-02-09T07:49:41.291Z,34.60
2018-02-09T07:50:43.846Z,36.42
2018-02-09T07:51:46.350Z,33.83
2018-02-09T07:52:49.146Z,34.97
2018-02-09T07:53:51.732Z,34.60
2018-02-09T07:54:55.558Z,35.80
2018-02-09T07:55:58.127Z,35.95
2018-02-09T07:57:00.605Z,37.97
2018-02-09T07:58:03.963Z,36.10
2018-02-09T07:59:06.489Z,36.08
2018-02-09T08:00:09.011Z,35.35
2018-02-09T08:01:11.510Z,35.10
2018-02-09T08:02:14.804Z,37.75
2018-02-09T08:03:17.272Z,36.55
2018-02-09T08:04:20.568Z,36.83
2018-02-09T08:05:23.042Z,37.17
2018-02-09T08:06:25.608Z,35.05
2018-02-09T08:07:28.103Z,36.15
2018-02-09T08:08:31.333Z,36.67
2018-02-09T08:09:34.666Z,36.75
2018-02-09T08:10:37.907Z,37.72
2018-02-09T08:11:40.421Z,37.60
2018-02-09T08:12:42.906Z,35.75
2018-02-09T08:13:45.427Z,37.50
2018-02-09T08:14:47.915Z,34.58
2018-02-09T08:15:51.154Z,35.97
2018-02-09T08:16:54.120Z,36.53
2018-02-09T08:17:57.665Z,34.67
2018-02-09T08:19:00.902Z,35.90
2018-02-09T08:20:04.370Z,35.33
2018-02-09T08:21:07.766Z,34.55
2018-02-09T08:22:10.238Z,34.05
2018-02-09T08:23:12.731Z,33.55
2018-02-09T08:24:15.206Z,32.75
2018-02-09T08:25:17.980Z,33.28
2018-02-09T08:26:20.459Z,35.38
2018-02-09T08:27:22.972Z,34.40
2018-02-09T08:28:25.444Z,34.17
2018-02-09T08:29:27.957Z,35.30
2018-02-09T08:30:30.426Z,34.70
2018-02-09T08:31:33.662Z,36.45
2018-02-09T08:32:36.926Z,33.03
2018-02-09T08:33:39.457Z,34.20
2018-02-09T08:34:41.954Z,34.28
2018-02-09T08:35:44.414Z,35.45
2018-02-09T08:36:46.902Z,34.45
2018-02-09T08:37:50.152Z,33.92
2018-02-09T08:38:53.416Z,35.33
2018-02-09T08:39:55.910Z,33.47
2018-02-09T08:40:59.145Z,34.30
2018-02-09T08:42:02.426Z,34.63
2018-02-09T08:43:05.689Z,37.45
2018-02-09T08:44:08.181Z,35.75
2018-02-09T08:45:11.418Z,36.30
2018-02-09T08:46:14.695Z,36.05
2018-02-09T08:47:17.209Z,34.85
2018-02-09T08:48:19.725Z,36.15
2018-02-09T08:49:22.196Z,34.95
2018-02-09T08:50:24.673Z,36.88
2018-02-09T08:51:27.949Z,37.30
2018-02-09T08:52:30.403Z,35.08
2018-02-09T08:53:32.966Z,37.95
2018-02-09T08:54:36.234Z,37.05
2018-02-09T08:55:38.845Z,36.30
2018-02-09T08:56:41.335Z,36.30
2018-02-09T08:57:43.804Z,35.92
2018-02-09T08:58:46.316Z,37.17
2018-02-09T08:59:49.885Z,37.13
2018-02-09T09:00:53.140Z,39.10
2018-02-09T09:01:55.636Z,38.20
2018-02-09T09:02:58.109Z,37.35
2018-02-09T09:04:00.594Z,37.97
2018-02-09T09:05:03.101Z,37.70
2018-02-09T09:06:06.334Z,39.97
2018-02-09T09:07:09.553Z,38.90
2018-02-09T09:08:12.066Z,39.85
2018-02-09T09:09:14.518Z,39.40
2018-02-09T09:10:17.791Z,39.55
2018-02-09T09:11:21.038Z,40.45
2018-02-09T09:12:23.567Z,39.60
2018-02-09T09:13:26.055Z,40.95
2018-02-09T09:14:28.538Z,41.37
2018-02-09T09:15:31.377Z,42.58
2018-02-09T09:16:33.896Z,41.58
2018-02-09T09:17:36.381Z,42.25
2018-02-09T09:18:39.616Z,41.47
2018-02-09T09:19:42.884Z,42.92
2018-02-09T09:20:45.350Z,42.08
2018-02-09T09:21:47.861Z,42.78
2018-02-09T09:22:50.353Z,43.97
2018-02-09T09:23:52.826Z,42.38
2018-02-09T09:24:55.407Z,43.87
2018-02-09T09:25:57.885Z,44.47
2018-02-09T09:27:00.459Z,42.80
2018-02-09T09:28:03.853Z,44.65
2018-02-09T09:29:06.332Z,43.70
2018-02-09T09:30:08.873Z,43.22
2018-02-09T09:31:11.349Z,44.67
2018-02-09T09:32:13.917Z,43.47
2018-02-09T09:33:16.437Z,42.92
2018-02-09T09:34:18.922Z,43.55
2018-02-09T09:35:21.579Z,43.50
2018-02-09T09:36:24.055Z,44.42
2018-02-09T09:37:26.563Z,43.15
2018-02-09T09:38:29.205Z,43.85
2018-02-09T09:39:31.686Z,43.67
2018-02-09T09:40:34.928Z,43.25
2018-02-09T09:41:37.412Z,42.78
2018-02-09T09:42:39.905Z,42.88
2018-02-09T09:43:42.422Z,42.85
2018-02-09T09:44:44.969Z,42.80
2018-02-09T09:45:47.448Z,43.70
2018-02-09T09:46:50.677Z,42.50
2018-02-09T09:47:53.956Z,41.45
2018-02-09T09:48:56.462Z,41.90
2018-02-09T09:49:58.976Z,42.10
2018-02-09T09:51:02.217Z,41.60
2018-02-09T09:52:05.464Z,41.33
2018-02-09T09:53:08.716Z,41.03
2018-02-09T09:54:11.268Z,40.03
2018-02-09T09:55:13.773Z,40.60
2018-02-09T09:56:16.283Z,39.97
2018-02-09T09:57:19.544Z,40.15
2018-02-09T09:58:22.058Z,39.60
2018-02-09T09:59:24.569Z,39.92
2018-02-09T10:00:27.885Z,40.33
2018-02-09T10:01:31.277Z,40.65
2018-02-09T10:02:39.183Z,39.17
2018-02-09T10:03:41.692Z,37.70
2018-02-09T10:04:44.218Z,38.47
2018-02-09T10:05:47.991Z,39.20
2018-02-09T10:06:50.489Z,37.58
2018-02-09T10:07:52.968Z,38.47
2018-02-09T10:08:56.390Z,40.63
2018-02-09T10:09:59.754Z,40.63
2018-02-09T10:11:03.755Z,36.85
2018-02-09T10:12:06.279Z,36.53
2018-02-09T10:13:08.775Z,38.42
2018-02-09T10:14:12.018Z,38.65
2018-02-09T10:15:15.269Z,38.13
2018-02-09T10:16:17.820Z,38.17
2018-02-09T10:17:20.314Z,38.03
2018-02-09T10:18:22.846Z,37.83
2018-02-09T10:19:26.109Z,36.25
2018-02-09T10:20:28.621Z,35.50
2018-02-09T10:21:31.113Z,37.13
2018-02-09T10:22:34.356Z,37.30
2018-02-09T10:23:38.448Z,38.90
2018-02-09T10:24:40.950Z,36.60
2018-02-09T10:25:43.410Z,35.85
2018-02-09T10:26:45.882Z,36.95
2018-02-09T10:27:49.066Z,37.85
2018-02-09T10:28:51.567Z,37.17
2018-02-09T10:29:54.802Z,35.97
2018-02-09T10:30:57.388Z,36.72
2018-02-09T10:31:59.882Z,35.92
2018-02-09T10:33:02.402Z,34.65
2018-02-09T10:34:04.972Z,35.95
2018-02-09T10:35:07.476Z,33.70
2018-02-09T10:36:09.995Z,37.25
2018-02-09T10:37:12.500Z,34.60
2018-02-09T10:38:15.746Z,36.55
2018-02-09T10:39:18.984Z,35.45
2018-02-09T10:40:22.366Z,36.35
2018-02-09T10:42:33.707Z,36.10
2018-02-09T10:43:36.271Z,36.65
2018-02-09T10:44:38.937Z,36.60
2018-02-09T10:45:41.414Z,37.22
2018-02-09T10:46:43.903Z,36.17
2018-02-09T10:47:46.429Z,37.05
2018-02-09T10:48:49.029Z,36.90
2018-02-09T10:49:51.516Z,37.50
2018-02-09T10:50:54.810Z,38.05
2018-02-09T10:51:57.342Z,37.90
2018-02-09T10:52:59.866Z,37.65
2018-02-09T10:54:02.344Z,37.20
2018-02-09T10:55:04.817Z,35.47
2018-02-09T10:56:07.318Z,37.90
2018-02-09T10:57:09.774Z,35.22
2018-02-09T10:58:12.293Z,36.28
2018-02-09T10:59:14.953Z,34.38
2018-02-09T11:00:33.948Z,34.83
2018-02-09T11:01:36.409Z,35.40
2018-02-09T11:02:38.901Z,36.13
2018-02-09T11:03:41.403Z,36.50
2018-02-09T11:04:43.932Z,34.10
2018-02-09T11:05:47.137Z,34.05
2018-02-09T11:06:49.601Z,34.40
2018-02-09T11:07:52.202Z,36.08
2018-02-09T11:08:55.469Z,35.95
2018-02-09T11:09:57.990Z,36.92
2018-02-09T11:11:00.470Z,33.53
2018-02-09T11:12:06.842Z,34.47
2018-02-09T11:13:15.439Z,33.13
2018-02-09T11:14:17.959Z,33.13
2018-02-09T11:15:20.453Z,33.30
2018-02-09T11:16:22.925Z,34.22
2018-02-09T11:17:25.429Z,34.22
2018-02-09T11:18:27.968Z,36.45
2018-02-09T11:19:30.485Z,35.58
2018-02-09T11:20:32.967Z,35.83
2018-02-09T11:21:35.434Z,37.05
2018-02-09T11:22:37.914Z,36.00
2018-02-09T11:23:40.378Z,35.72
2018-02-09T11:24:43.666Z,36.58
2018-02-09T11:25:46.132Z,35.42
2018-02-09T11:26:48.614Z,33.40
2018-02-09T11:27:51.106Z,35.03
2018-02-09T11:28:53.648Z,35.13
2018-02-09T11:29:56.175Z,36.03
2018-02-09T11:30:58.658Z,33.97
2018-02-09T11:32:01.122Z,34.90
2018-02-09T11:33:03.577Z,35.65
2018-02-09T11:34:06.061Z,34.30
2018-02-09T11:35:09.310Z,34.58
2018-02-09T11:36:11.907Z,35.92
2018-02-09T11:37:14.322Z,36.55
2018-02-09T11:38:16.804Z,33.60
2018-02-09T11:39:21.185Z,35.25
2018-02-09T11:40:25.354Z,34.85
2018-02-09T11:41:28.068Z,33.33
2018-02-09T11:42:34.893Z,35.15
2018-02-09T11:43:37.461Z,34.08
2018-02-09T11:44:40.016Z,33.63
2018-02-09T11:45:44.316Z,33.30
2018-02-09T11:46:46.799Z,32.72
2018-02-09T11:47:50.020Z,34.20
2018-02-09T11:48:53.286Z,31.73
2018-02-09T11:49:55.763Z,32.42
2018-02-09T11:50:58.352Z,33.05
2018-02-09T11:52:00.822Z,33.80
2018-02-09T11:53:03.443Z,31.95
2018-02-09T11:54:06.022Z,31.40
2018-02-09T11:55:08.518Z,31.48
2018-02-09T11:56:11.015Z,32.85
2018-02-09T11:57:13.559Z,31.95
2018-02-09T11:58:16.066Z,32.08
2018-02-09T11:59:18.548Z,32.83
2018-02-09T12:00:21.787Z,33.15
2018-02-09T12:01:25.042Z,31.40
2018-02-09T12:02:27.522Z,30.37
2018-02-09T12:03:29.990Z,30.27
2018-02-09T12:04:32.482Z,30.45
2018-02-09T12:05:34.925Z,30.52
2018-02-09T12:06:38.278Z,33.22
2018-02-09T12:07:41.526Z,30.05
2018-02-09T12:08:44.072Z,30.15
2018-02-09T12:09:46.526Z,31.25
2018-02-09T12:10:49.016Z,30.77
2018-02-09T12:11:51.525Z,31.12
2018-02-09T12:12:54.095Z,31.33
2018-02-09T12:13:56.567Z,32.38
2018-02-09T12:14:59.788Z,31.62
2018-02-09T12:16:02.297Z,31.77
2018-02-09T12:17:04.767Z,31.45
2018-02-09T12:18:07.262Z,30.73
2018-02-09T12:19:09.726Z,32.30
2018-02-09T12:20:12.310Z,33.80
2018-02-09T12:21:14.794Z,32.72
2018-02-09T12:22:17.267Z,33.05
2018-02-09T12:23:19.825Z,34.22
2018-02-09T12:24:22.595Z,33.45
2018-02-09T12:25:25.065Z,33.50
2018-02-09T12:26:28.720Z,34.35
2018-02-09T12:27:31.201Z,35.25
2018-02-09T12:28:33.679Z,36.17
2018-02-09T12:29:36.164Z,34.92
2018-02-09T12:30:38.659Z,34.80
2018-02-09T12:31:41.131Z,34.45
2018-02-09T12:32:44.387Z,36.15
2018-02-09T12:33:47.645Z,35.80
2018-02-09T12:34:50.128Z,38.78
2018-02-09T12:35:52.698Z,34.75
2018-02-09T12:36:55.279Z,35.35
2018-02-09T12:37:57.703Z,34.45
2018-02-09T12:39:00.501Z,34.30
2018-02-09T12:40:02.975Z,34.40
2018-02-09T12:41:06.242Z,35.53
2018-02-09T12:42:08.718Z,36.17
2018-02-09T12:43:11.177Z,36.13
2018-02-09T12:44:14.519Z,34.88
2018-02-09T12:45:17.799Z,34.38
2018-02-09T12:46:22.042Z,35.22
2018-02-09T12:47:24.517Z,36.30
2018-02-09T12:48:26.995Z,37.40
2018-02-09T12:49:29.559Z,34.95
2018-02-09T12:50:32.036Z,36.50
2018-02-09T12:51:35.521Z,35.15
2018-02-09T12:52:37.984Z,34.67
2018-02-09T12:53:40.503Z,36.30
2018-02-09T12:54:42.974Z,34.65
2018-02-09T12:55:45.455Z,33.67
2018-02-09T12:56:47.943Z,32.85
2018-02-09T12:57:50.435Z,32.50
2018-02-09T12:58:52.915Z,36.05
2018-02-09T12:59:55.417Z,34.40
2018-02-09T13:00:57.874Z,35.08
2018-02-09T13:02:01.895Z,33.33
2018-02-09T13:03:04.377Z,36.67
2018-02-09T13:04:06.845Z,35.17
2018-02-09T13:05:09.359Z,35.20
2018-02-09T13:06:11.884Z,33.70
2018-02-09T13:07:14.384Z,34.28
2018-02-09T13:08:17.836Z,34.83
2018-02-09T13:09:21.995Z,33.33
2018-02-09T13:10:25.289Z,32.88
2018-02-09T13:11:27.765Z,35.67
2018-02-09T13:12:42.924Z,34.40
2018-02-09T13:13:45.426Z,33.45
2018-02-09T13:14:49.571Z,35.35
2018-02-09T13:15:53.315Z,35.75
2018-02-09T13:16:56.229Z,36.20
2018-02-09T13:17:58.775Z,35.85
2018-02-09T13:19:01.239Z,34.47
2018-02-09T13:20:03.702Z,35.22
2018-02-09T13:21:06.272Z,35.00
2018-02-09T13:22:08.855Z,33.45
2018-02-09T13:23:23.262Z,32.63
2018-02-09T13:24:27.216Z,33.85
2018-02-09T13:25:29.701Z,34.55
2018-02-09T13:26:32.191Z,34.83
2018-02-09T13:27:35.444Z,33.47
2018-02-09T13:28:50.727Z,34.28
2018-02-09T13:29:53.213Z,33.00
2018-02-09T13:30:55.691Z,34.80